createdAt,value
2022-10-19T00:01:39.974Z,29.46
2022-10-19T00:04:30.800Z,29.38
2022-10-19T00:07:20.816Z,29.33
2022-10-19T00:10:13.243Z,29.35
2022-10-19T00:13:03.349Z,29.31
2022-10-19T00:15:53.151Z,29.36
2022-10-19T00:18:47.040Z,29.42
2022-10-19T00:21:40.552Z,29.49
2022-10-19T00:24:30.047Z,29.52
2022-10-19T00:27:19.346Z,29.53
2022-10-19T00:30:12.565Z,29.60
2022-10-19T00:33:02.380Z,29.65
2022-10-19T00:35:53.330Z,29.78
2022-10-19T00:38:43.750Z,29.82
2022-10-19T00:41:35.642Z,29.94
2022-10-19T00:44:31.654Z,30.03
2022-10-19T00:47:21.895Z,30.13
2022-10-19T00:50:11.441Z,30.16
2022-10-19T00:53:01.044Z,30.20
2022-10-19T00:55:50.342Z,30.32
2022-10-19T00:58:39.950Z,30.34
2022-10-19T01:01:33.387Z,30.50
2022-10-19T01:04:24.818Z,30.58
2022-10-19T01:07:21.609Z,30.59
2022-10-19T01:10:14.515Z,30.61
2022-10-19T01:13:45.307Z,30.62
2022-10-19T01:16:52.229Z,30.70
2022-10-19T01:20:17.166Z,30.73
2022-10-19T01:23:53.093Z,30.73
2022-10-19T01:27:18.192Z,30.85
2022-10-19T01:30:55.239Z,30.83
2022-10-19T01:34:33.237Z,30.90
2022-10-19T01:37:44.430Z,30.94
2022-10-19T01:40:44.618Z,30.97
2022-10-19T01:43:58.191Z,30.86
2022-10-19T01:47:15.858Z,30.87
2022-10-19T01:50:28.329Z,30.87
2022-10-19T01:53:26.741Z,30.86
2022-10-19T01:56:24.043Z,30.91
2022-10-19T01:59:14.797Z,30.96
2022-10-19T02:02:16.900Z,31.03
2022-10-19T02:05:09.695Z,31.06
2022-10-19T02:08:12.632Z,30.99
2022-10-19T02:11:07.469Z,30.96
2022-10-19T02:14:03.166Z,30.91
2022-10-19T02:17:08.509Z,30.92
2022-10-19T02:20:06.601Z,30.91
2022-10-19T02:22:59.468Z,30.97
2022-10-19T02:25:50.433Z,31.10
2022-10-19T02:28:44.571Z,31.21
2022-10-19T02:31:40.490Z,31.31
2022-10-19T02:34:31.610Z,31.33
2022-10-19T02:37:25.486Z,31.37
2022-10-19T02:40:25.988Z,31.42
2022-10-19T02:43:25.779Z,31.54
2022-10-19T02:47:05.890Z,31.60
2022-10-19T02:50:04.724Z,31.56
2022-10-19T02:53:02.808Z,31.62
2022-10-19T02:56:04.502Z,31.69
2022-10-19T02:59:07.577Z,31.73
2022-10-19T03:02:08.265Z,31.77
2022-10-19T03:05:09.994Z,31.88
2022-10-19T03:08:06.035Z,31.95
2022-10-19T03:10:58.891Z,32.01
2022-10-19T03:13:57.268Z,32.08
2022-10-19T03:16:51.891Z,32.08
2022-10-19T03:19:43.800Z,32.21
2022-10-19T03:22:48.339Z,32.22
2022-10-19T03:32:06.398Z,32.30
2022-10-19T03:34:57.226Z,32.36
2022-10-19T03:38:06.326Z,32.49
2022-10-19T03:41:05.983Z,32.49
2022-10-19T03:44:08.897Z,32.54
2022-10-19T03:47:20.605Z,32.60
2022-10-19T03:50:18.879Z,32.65
2022-10-19T03:53:11.767Z,32.71
2022-10-19T03:56:37.051Z,32.75
2022-10-19T03:59:33.669Z,32.81
2022-10-19T04:02:24.235Z,32.83
2022-10-19T04:05:17.871Z,32.73
2022-10-19T04:08:17.121Z,32.62
2022-10-19T04:11:13.317Z,32.51
2022-10-19T04:17:21.742Z,32.34
2022-10-19T04:20:14.279Z,32.27
2022-10-19T04:23:12.473Z,32.21
2022-10-19T04:26:15.084Z,32.12
2022-10-19T04:29:10.747Z,32.06
2022-10-19T04:32:04.689Z,31.96
2022-10-19T04:34:57.272Z,31.86
2022-10-19T04:38:03.536Z,31.83
2022-10-19T04:40:57.325Z,31.71
2022-10-19T04:43:58.161Z,31.55
2022-10-19T04:47:01.534Z,31.42
2022-10-19T04:49:57.749Z,31.22
2022-10-19T04:52:57.679Z,31.06
2022-10-19T04:55:56.285Z,30.92
2022-10-19T04:58:50.641Z,30.78
2022-10-19T05:01:57.826Z,30.67
2022-10-19T05:04:57.450Z,30.61
2022-10-19T05:07:56.032Z,30.55
2022-10-19T05:10:59.942Z,30.49
2022-10-19T05:13:56.746Z,30.44
2022-10-19T05:17:21.250Z,30.39
2022-10-19T05:20:24.803Z,30.35
2022-10-19T05:23:24.005Z,30.34
2022-10-19T05:26:47.363Z,30.33
2022-10-19T05:29:58.449Z,30.37
2022-10-19T05:33:01.608Z,30.37
2022-10-19T05:35:55.524Z,30.37
2022-10-19T05:38:59.226Z,30.42
2022-10-19T05:41:57.301Z,30.42
2022-10-19T05:45:06.108Z,30.45
2022-10-19T05:48:04.031Z,30.46
2022-10-19T05:51:05.220Z,30.48
2022-10-19T05:54:06.706Z,30.52
2022-10-19T05:57:06.926Z,30.50
2022-10-19T06:00:03.085Z,30.51
2022-10-19T06:03:07.530Z,30.51
2022-10-19T06:06:16.707Z,30.53
2022-10-19T06:09:13.347Z,30.55
2022-10-19T06:12:15.797Z,30.56
2022-10-19T06:15:20.126Z,30.59
2022-10-19T06:18:27.977Z,30.60
2022-10-19T06:21:46.443Z,30.54
2022-10-19T06:27:55.245Z,30.57
2022-10-19T06:30:55.061Z,30.49
2022-10-19T06:34:04.831Z,30.51
2022-10-19T06:37:02.538Z,30.48
2022-10-19T06:43:14.183Z,30.48
2022-10-19T06:46:13.853Z,30.48
2022-10-19T06:49:12.150Z,30.43
2022-10-19T06:52:13.060Z,30.45
2022-10-19T06:55:11.291Z,30.45
2022-10-19T06:58:14.625Z,30.41
2022-10-19T07:01:21.629Z,30.40
2022-10-19T07:04:25.225Z,30.40
2022-10-19T07:07:26.181Z,30.40
2022-10-19T07:10:36.278Z,30.34
2022-10-19T07:16:44.395Z,30.43
2022-10-19T07:19:40.709Z,30.42
2022-10-19T07:25:47.388Z,30.41
2022-10-19T07:28:52.183Z,30.44
2022-10-19T07:31:55.045Z,30.39
2022-10-19T07:34:51.649Z,30.40
2022-10-19T07:41:04.814Z,30.36
2022-10-19T07:44:34.955Z,30.29
2022-10-19T07:50:47.386Z,30.21
2022-10-19T07:53:46.669Z,30.19
2022-10-19T07:56:52.292Z,30.14
2022-10-19T07:59:58.367Z,30.16
2022-10-19T08:06:23.633Z,30.10
2022-10-19T08:09:51.063Z,30.11
2022-10-19T08:13:03.702Z,30.08
2022-10-19T08:16:03.840Z,30.08
2022-10-19T08:19:20.226Z,30.05
2022-10-19T08:22:34.057Z,30.09
2022-10-19T08:25:50.241Z,30.15
2022-10-19T08:28:46.637Z,30.09
2022-10-19T08:31:56.270Z,30.04
2022-10-19T08:35:45.063Z,30.10
2022-10-19T08:38:58.696Z,30.09
2022-10-19T08:42:26.261Z,30.04
2022-10-19T08:45:50.171Z,30.04
2022-10-19T08:48:50.557Z,30.02
2022-10-19T08:52:00.384Z,30.03
2022-10-19T08:54:55.013Z,30.04
2022-10-19T08:58:07.191Z,30.01
2022-10-19T09:01:37.982Z,30.01
2022-10-19T09:05:22.277Z,29.94
2022-10-19T09:08:30.306Z,30.00
2022-10-19T09:15:01.418Z,30.00
2022-10-19T09:18:08.192Z,29.97
2022-10-19T09:21:30.882Z,29.95
2022-10-19T09:25:18.550Z,29.96
2022-10-19T09:28:41.402Z,29.95
2022-10-19T09:31:49.156Z,29.92
2022-10-19T09:35:17.269Z,29.88
2022-10-19T09:38:15.104Z,29.87
2022-10-19T09:41:24.542Z,29.91
2022-10-19T09:44:30.245Z,29.92
2022-10-19T09:47:42.801Z,29.87
2022-10-19T09:51:02.295Z,29.88
2022-10-19T09:54:03.555Z,29.86
2022-10-19T09:57:40.494Z,29.84
2022-10-19T10:03:59.558Z,29.76
2022-10-19T10:07:18.191Z,29.66
2022-10-19T10:10:50.716Z,29.57
2022-10-19T10:13:57.858Z,29.49
2022-10-19T10:17:25.320Z,29.47
2022-10-19T10:20:49.930Z,29.44
2022-10-19T10:24:24.228Z,29.41
2022-10-19T10:27:32.706Z,29.39
2022-10-19T10:34:22.949Z,29.38
2022-10-19T10:37:31.607Z,29.33
2022-10-19T10:44:13.165Z,29.35
2022-10-19T10:50:58.956Z,29.40
2022-10-19T10:53:50.998Z,29.39
2022-10-19T10:56:55.367Z,29.44
2022-10-19T11:00:27.338Z,29.44
2022-10-19T11:03:56.201Z,29.40
2022-10-19T11:06:59.836Z,29.37
2022-10-19T11:10:10.097Z,29.38
2022-10-19T11:13:38.173Z,29.35
2022-10-19T11:16:45.830Z,29.39
2022-10-19T11:19:52.565Z,29.37
2022-10-19T11:23:20.000Z,29.35
2022-10-19T11:26:31.119Z,29.33
2022-10-19T11:29:58.073Z,29.36
2022-10-19T11:33:06.740Z,29.32
2022-10-19T11:36:29.881Z,29.30
2022-10-19T11:40:05.271Z,29.26
2022-10-19T11:43:11.050Z,29.27
2022-10-19T11:46:30.951Z,29.30
2022-10-19T11:49:48.968Z,29.31
2022-10-19T11:53:00.629Z,29.30
2022-10-19T11:56:17.823Z,29.28
2022-10-19T12:00:13.507Z,29.26
2022-10-19T12:03:44.273Z,29.17
2022-10-19T12:07:04.540Z,29.22
2022-10-19T12:10:43.054Z,29.14
2022-10-19T12:13:45.476Z,29.21
2022-10-19T12:16:57.391Z,29.23
2022-10-19T12:20:02.519Z,29.16
2022-10-19T12:23:34.352Z,29.20
2022-10-19T12:26:53.316Z,29.23
2022-10-19T12:29:54.620Z,29.25
2022-10-19T12:33:35.652Z,29.21
2022-10-19T12:37:06.194Z,29.15
2022-10-19T12:40:48.494Z,29.25
2022-10-19T12:43:53.641Z,29.27
2022-10-19T12:46:53.093Z,29.17
2022-10-19T12:50:02.946Z,29.14
2022-10-19T12:53:22.585Z,29.18
2022-10-19T12:56:44.061Z,29.20
2022-10-19T12:59:52.924Z,29.25
2022-10-19T13:02:48.295Z,29.29
2022-10-19T13:06:10.863Z,29.21
2022-10-19T13:09:13.432Z,29.22
2022-10-19T13:12:31.790Z,29.24
2022-10-19T13:16:01.864Z,29.20
2022-10-19T13:19:27.520Z,29.26
2022-10-19T13:26:46.381Z,29.26
2022-10-19T13:29:57.223Z,29.27
2022-10-19T13:32:53.293Z,29.21
2022-10-19T13:36:35.751Z,29.12
2022-10-19T13:39:54.358Z,29.17
2022-10-19T13:43:09.981Z,29.13
2022-10-19T13:46:30.808Z,29.13
2022-10-19T13:50:08.431Z,29.14
2022-10-19T14:00:30.890Z,29.18
2022-10-19T14:03:58.543Z,29.24
2022-10-19T14:08:07.238Z,29.27
2022-10-19T14:11:26.268Z,29.20
2022-10-19T14:14:53.145Z,29.20
2022-10-19T14:18:01.261Z,29.19
2022-10-19T14:21:11.929Z,29.19
2022-10-19T14:24:22.898Z,29.21
2022-10-19T14:27:21.085Z,29.13
2022-10-19T14:30:29.019Z,29.17
2022-10-19T14:33:19.451Z,29.18
2022-10-19T14:36:21.821Z,29.18
2022-10-19T14:39:43.160Z,29.17
2022-10-19T14:42:47.418Z,29.13
2022-10-19T14:45:40.975Z,29.10
2022-10-19T14:48:33.349Z,29.05
2022-10-19T14:51:44.503Z,29.08
2022-10-19T14:54:38.045Z,29.02
2022-10-19T14:57:35.562Z,28.99
2022-10-19T15:00:28.762Z,28.97
2022-10-19T15:03:28.552Z,28.94
2022-10-19T15:06:27.354Z,28.92
2022-10-19T15:09:47.733Z,28.93
2022-10-19T15:12:42.773Z,28.86
2022-10-19T15:15:35.892Z,28.81
2022-10-19T15:21:38.692Z,28.77
2022-10-19T15:24:31.747Z,28.76
2022-10-19T15:27:24.915Z,28.68
2022-10-19T15:30:21.037Z,28.70
2022-10-19T15:33:17.309Z,28.69
2022-10-19T15:36:22.258Z,28.64
2022-10-19T15:39:32.854Z,28.65
2022-10-19T15:42:47.082Z,28.64
2022-10-19T15:45:40.794Z,28.58
2022-10-19T15:48:52.291Z,28.61
2022-10-19T15:51:50.695Z,28.56
2022-10-19T15:54:45.423Z,28.56
2022-10-19T15:57:40.753Z,28.54
2022-10-19T16:00:38.900Z,28.52
2022-10-19T16:03:32.387Z,28.47
2022-10-19T16:06:24.628Z,28.47
2022-10-19T16:09:23.342Z,28.49
2022-10-19T16:12:16.567Z,28.45
2022-10-19T16:15:08.651Z,28.43
2022-10-19T16:18:05.057Z,28.41
2022-10-19T16:20:55.227Z,28.41
2022-10-19T16:23:46.132Z,28.40
2022-10-19T16:26:37.361Z,28.37
2022-10-19T16:29:30.764Z,28.34
2022-10-19T16:32:21.309Z,28.36
2022-10-19T16:35:15.662Z,28.34
2022-10-19T16:38:05.950Z,28.31
2022-10-19T16:40:55.977Z,28.30
2022-10-19T16:43:49.945Z,28.29
2022-10-19T16:46:40.464Z,28.30
2022-10-19T16:49:32.364Z,28.29
2022-10-19T16:52:23.066Z,28.28
2022-10-19T16:55:13.308Z,28.24
2022-10-19T16:58:04.028Z,28.24
2022-10-19T17:00:58.232Z,28.23
2022-10-19T17:03:52.384Z,28.22
2022-10-19T17:06:46.436Z,28.31
2022-10-19T17:09:42.111Z,28.32
2022-10-19T17:12:33.391Z,28.31
2022-10-19T17:15:42.133Z,28.33
2022-10-19T17:18:34.915Z,28.36
2022-10-19T17:21:28.189Z,28.37
2022-10-19T17:24:22.062Z,28.37
2022-10-19T17:27:12.962Z,28.33
2022-10-19T17:30:06.871Z,28.33
2022-10-19T17:32:56.989Z,28.35
2022-10-19T17:35:47.548Z,28.34
2022-10-19T17:38:39.905Z,28.39
2022-10-19T17:41:31.513Z,28.31
2022-10-19T17:44:24.504Z,28.32
2022-10-19T17:47:14.849Z,28.32
2022-10-19T17:50:04.998Z,28.36
2022-10-19T17:52:58.718Z,28.33
2022-10-19T17:55:49.140Z,28.32
2022-10-19T17:58:40.129Z,28.32
2022-10-19T18:01:31.174Z,28.29
2022-10-19T18:04:25.009Z,28.28
2022-10-19T18:07:15.182Z,28.26
2022-10-19T18:10:06.384Z,28.25
2022-10-19T18:12:56.691Z,28.24
2022-10-19T18:15:46.679Z,28.23
2022-10-19T18:18:40.585Z,28.20
2022-10-19T18:21:39.964Z,28.20
2022-10-19T18:24:32.136Z,28.22
2022-10-19T18:27:23.794Z,28.20
2022-10-19T18:30:14.401Z,28.21
2022-10-19T18:33:07.797Z,28.22
2022-10-19T18:36:00.164Z,28.21
2022-10-19T18:38:55.234Z,28.20
2022-10-19T18:41:45.382Z,28.20
2022-10-19T18:44:36.329Z,28.18
2022-10-19T18:47:26.372Z,28.17
2022-10-19T18:50:19.297Z,28.18
2022-10-19T18:53:09.396Z,28.18
2022-10-19T18:56:02.696Z,28.14
2022-10-19T18:58:53.753Z,28.13
2022-10-19T19:01:44.944Z,28.15
2022-10-19T19:04:35.615Z,28.14
2022-10-19T19:07:26.268Z,28.11
2022-10-19T19:10:18.915Z,28.10
2022-10-19T19:13:09.632Z,28.10
2022-10-19T19:16:01.029Z,28.10
2022-10-19T19:18:52.032Z,28.10
2022-10-19T19:21:45.180Z,28.06
2022-10-19T19:24:34.977Z,28.05
2022-10-19T19:27:31.432Z,28.06
2022-10-19T19:30:24.900Z,28.08
2022-10-19T19:33:19.322Z,28.04
2022-10-19T19:36:11.016Z,28.04
2022-10-19T19:39:01.252Z,28.06
2022-10-19T19:41:52.962Z,28.00
2022-10-19T19:44:45.773Z,28.03
2022-10-19T19:47:36.339Z,28.04
2022-10-19T19:50:26.779Z,28.01
2022-10-19T19:53:17.106Z,27.99
2022-10-19T19:56:12.036Z,27.97
2022-10-19T19:59:06.786Z,27.95
2022-10-19T20:01:57.244Z,27.98
2022-10-19T20:04:48.712Z,27.99
2022-10-19T20:07:39.755Z,27.99
2022-10-19T20:10:33.166Z,27.97
2022-10-19T20:13:23.398Z,27.99
2022-10-19T20:16:20.931Z,27.98
2022-10-19T20:19:14.614Z,27.93
2022-10-19T20:22:07.366Z,27.93
2022-10-19T20:24:57.338Z,27.92
2022-10-19T20:27:49.354Z,27.88
2022-10-19T20:30:39.420Z,27.88
2022-10-19T20:33:32.486Z,27.88
2022-10-19T20:36:27.424Z,27.88
2022-10-19T20:39:17.990Z,27.88
2022-10-19T20:42:07.901Z,27.85
2022-10-19T20:44:58.411Z,27.85
2022-10-19T20:47:50.343Z,27.84
2022-10-19T20:50:41.932Z,27.85
2022-10-19T20:53:32.021Z,27.83
2022-10-19T20:56:24.863Z,27.82
2022-10-19T20:59:23.734Z,27.83
2022-10-19T21:02:13.919Z,27.80
2022-10-19T21:05:04.450Z,27.81
2022-10-19T21:07:55.179Z,27.81
2022-10-19T21:10:45.639Z,27.80
2022-10-19T21:13:36.090Z,27.79
2022-10-19T21:16:31.601Z,27.79
2022-10-19T21:19:23.615Z,27.81
2022-10-19T21:22:17.054Z,27.79
2022-10-19T21:25:07.491Z,27.75
2022-10-19T21:27:58.636Z,27.74
2022-10-19T21:30:48.578Z,27.72
2022-10-19T21:33:57.015Z,27.75
2022-10-19T21:36:49.118Z,27.73
2022-10-19T21:39:50.133Z,27.70
2022-10-19T21:42:45.728Z,27.69
2022-10-19T21:45:44.670Z,27.71
2022-10-19T21:48:42.070Z,27.70
2022-10-19T21:51:43.961Z,27.68
2022-10-19T21:54:47.381Z,27.66
2022-10-19T21:57:37.206Z,27.64
2022-10-19T22:00:28.216Z,27.66
2022-10-19T22:03:21.124Z,27.66
2022-10-19T22:06:12.150Z,27.67
2022-10-19T22:09:02.621Z,27.66
2022-10-19T22:11:53.258Z,27.67
2022-10-19T22:14:46.222Z,27.68
2022-10-19T22:17:37.669Z,27.66
2022-10-19T22:20:27.825Z,27.64
2022-10-19T22:23:17.708Z,27.64
2022-10-19T22:26:18.258Z,27.66
2022-10-19T22:29:11.603Z,27.65
2022-10-19T22:32:01.515Z,27.65
2022-10-19T22:34:52.106Z,27.66
2022-10-19T22:37:42.026Z,27.66
2022-10-19T22:40:33.215Z,27.66
2022-10-19T22:43:22.730Z,27.67
2022-10-19T22:46:12.609Z,27.67
2022-10-19T22:49:02.394Z,27.66
2022-10-19T22:51:52.075Z,27.68
2022-10-19T22:54:44.085Z,27.67
2022-10-19T22:57:34.333Z,27.72
2022-10-19T23:00:24.194Z,27.73
2022-10-19T23:03:14.205Z,27.75
2022-10-19T23:06:04.534Z,27.78
2022-10-19T23:08:55.190Z,27.80
2022-10-19T23:11:46.114Z,27.80
2022-10-19T23:14:36.589Z,27.78
2022-10-19T23:17:33.026Z,27.77
2022-10-19T23:20:23.025Z,27.75
2022-10-19T23:23:16.098Z,27.82
2022-10-19T23:26:15.162Z,27.84
2022-10-19T23:29:07.218Z,27.86
2022-10-19T23:31:57.613Z,27.90
2022-10-19T23:34:52.014Z,27.90
2022-10-19T23:37:42.355Z,27.84
2022-10-19T23:40:34.555Z,27.89
2022-10-19T23:43:24.357Z,27.90
2022-10-19T23:46:13.582Z,27.92
2022-10-19T23:49:02.261Z,27.88
2022-10-19T23:51:52.594Z,27.97
2022-10-19T23:54:41.817Z,27.95
2022-10-19T23:57:30.890Z,28.02
